Time;durP1;ratioP1;P1;durP2;ratioP2;P2;SDS_P1;SDS_P2;PMS_P1;PMS_P2;Temp;Humidity;BMP_temperature;BMP_pressure;BME280_temperature;BME280_humidity;BME280_pressure;Samples;Min_cycle;Max_cycle;Signal;HPM_P1;HPM_P2
2022/10/09 00:01:12;;;;;;;58.60;34.47;;;;;;;;;;742780;187;916240;-58
2022/10/09 00:03:38;;;;;;;52.83;36.00;;;;;;;;;;745619;184;915510;-58
2022/10/09 00:06:04;;;;;;;51.80;36.80;;;;;;;;;;745731;187;914978;-57
2022/10/09 00:08:30;;;;;;;48.47;33.87;;;;;;;;;;743807;185;913455;-57
2022/10/09 00:10:55;;;;;;;52.20;36.37;;;;;;;;;;739259;187;920613;-58
2022/10/09 00:13:21;;;;;;;54.00;36.20;;;;;;;;;;743735;185;918496;-58
2022/10/09 00:15:47;;;;;;;53.27;34.97;;;;;;;;;;746873;187;919092;-58
2022/10/09 00:18:13;;;;;;;56.90;37.80;;;;;;;;;;746847;186;916574;-61
2022/10/09 00:20:39;;;;;;;62.03;36.10;;;;;;;;;;746202;186;918552;-61
2022/10/09 00:23:05;;;;;;;55.53;37.07;;;;;;;;;;750566;184;908649;-58
2022/10/09 00:25:30;;;;;;;52.73;33.67;;;;;;;;;;746985;187;816252;-57
2022/10/09 00:27:57;;;;;;;49.37;34.10;;;;;;;;;;748391;184;920304;-57
2022/10/09 00:30:23;;;;;;;55.07;35.00;;;;;;;;;;751084;187;819846;-57
2022/10/09 00:32:49;;;;;;;46.53;30.23;;;;;;;;;;742616;187;920162;-57
2022/10/09 00:35:15;;;;;;;47.08;28.05;;;;;;;;;;742082;186;919556;-58
2022/10/09 00:37:40;;;;;;;43.53;30.70;;;;;;;;;;741236;187;918801;-61
2022/10/09 00:40:07;;;;;;;54.20;33.10;;;;;;;;;;746865;185;923953;-57
2022/10/09 00:42:33;;;;;;;47.30;30.35;;;;;;;;;;742303;185;915724;-58
2022/10/09 00:44:59;;;;;;;45.50;31.17;;;;;;;;;;741009;187;918387;-61
2022/10/09 00:47:27;;;;;;;51.87;27.13;;;;;;;;;;747199;187;919218;-62
2022/10/09 00:49:53;;;;;;;42.80;28.20;;;;;;;;;;743237;185;926064;-58
2022/10/09 00:52:19;;;;;;;34.07;23.93;;;;;;;;;;744543;185;924901;-58
2022/10/09 00:54:45;;;;;;;37.23;23.37;;;;;;;;;;752035;186;923891;-61
2022/10/09 00:57:10;;;;;;;39.33;24.47;;;;;;;;;;739798;185;917219;-57
2022/10/09 00:59:36;;;;;;;36.63;22.97;;;;;;;;;;737836;186;920279;-58
2022/10/09 01:02:02;;;;;;;38.93;23.17;;;;;;;;;;741532;187;817017;-61
2022/10/09 01:04:28;;;;;;;32.97;21.10;;;;;;;;;;746197;187;917843;-61
2022/10/09 01:07:10;;;;;;;29.40;20.13;;;;;;;;;;744180;187;918877;-61
2022/10/09 01:09:40;;;;;;;26.40;17.70;;;;;;;;;;739941;184;919009;-58
2022/10/09 01:12:06;;;;;;;27.00;17.13;;;;;;;;;;739368;186;918563;-61
2022/10/09 01:14:32;;;;;;;30.93;16.73;;;;;;;;;;747541;187;912989;-61
2022/10/09 01:17:02;;;;;;;26.33;15.13;;;;;;;;;;741607;185;916574;-62
2022/10/09 01:19:29;;;;;;;30.47;17.27;;;;;;;;;;742502;186;918887;-62
2022/10/09 01:22:02;;;;;;;22.57;15.47;;;;;;;;;;742759;187;918416;-61
2022/10/09 01:24:33;;;;;;;28.20;17.33;;;;;;;;;;746878;186;915594;-62
2022/10/09 01:27:02;;;;;;;27.30;16.33;;;;;;;;;;746485;186;915848;-58
2022/10/09 01:29:28;;;;;;;29.03;15.80;;;;;;;;;;743155;184;918220;-61
2022/10/09 01:31:54;;;;;;;27.70;16.87;;;;;;;;;;745009;185;915671;-61
2022/10/09 01:34:20;;;;;;;26.80;18.03;;;;;;;;;;750154;184;880819;-58
2022/10/09 01:36:45;;;;;;;23.33;16.73;;;;;;;;;;745931;185;817939;-62
2022/10/09 01:39:12;;;;;;;30.10;15.07;;;;;;;;;;741623;187;816632;-62
2022/10/09 01:41:38;;;;;;;25.07;14.43;;;;;;;;;;747787;187;920106;-62
2022/10/09 01:44:04;;;;;;;18.83;9.60;;;;;;;;;;745503;186;862780;-62
2022/10/09 01:46:30;;;;;;;14.37;9.40;;;;;;;;;;737032;186;920006;-62
2022/10/09 01:48:57;;;;;;;15.17;9.80;;;;;;;;;;748120;184;917098;-57
2022/10/09 01:51:22;;;;;;;12.43;9.30;;;;;;;;;;745147;187;921353;-58
2022/10/09 01:53:48;;;;;;;13.93;9.47;;;;;;;;;;739681;187;918552;-58
2022/10/09 01:56:14;;;;;;;18.07;9.17;;;;;;;;;;746184;185;816014;-58
2022/10/09 01:58:41;;;;;;;16.30;9.00;;;;;;;;;;752216;184;816405;-58
2022/10/09 02:01:07;;;;;;;14.30;8.70;;;;;;;;;;747483;187;918589;-57
2022/10/09 02:03:33;;;;;;;12.33;9.30;;;;;;;;;;744067;187;917392;-58
2022/10/09 02:06:00;;;;;;;15.13;8.60;;;;;;;;;;746185;187;918149;-61
2022/10/09 02:08:25;;;;;;;13.60;9.00;;;;;;;;;;745886;187;923882;-58
2022/10/09 02:10:51;;;;;;;11.50;8.17;;;;;;;;;;744426;187;919048;-58
2022/10/09 02:13:17;;;;;;;16.63;8.57;;;;;;;;;;741561;187;919345;-58
2022/10/09 02:15:45;;;;;;;18.37;8.10;;;;;;;;;;745672;187;918547;-61
2022/10/09 02:18:10;;;;;;;13.70;8.60;;;;;;;;;;741140;187;921803;-58
2022/10/09 02:20:36;;;;;;;22.80;7.77;;;;;;;;;;742875;185;919883;-58
2022/10/09 02:23:02;;;;;;;11.45;8.13;;;;;;;;;;748744;186;918291;-62
2022/10/09 02:25:28;;;;;;;11.30;7.10;;;;;;;;;;745404;187;918872;-62
2022/10/09 02:27:54;;;;;;;14.17;7.87;;;;;;;;;;745852;185;918729;-57
2022/10/09 02:30:20;;;;;;;19.15;7.60;;;;;;;;;;743756;186;933146;-58
2022/10/09 02:32:46;;;;;;;14.10;8.27;;;;;;;;;;744047;186;922365;-62
2022/10/09 02:35:11;;;;;;;13.80;8.47;;;;;;;;;;743361;184;922009;-58
2022/10/09 02:37:37;;;;;;;9.85;7.00;;;;;;;;;;741434;187;919244;-58
2022/10/09 02:40:04;;;;;;;12.80;7.80;;;;;;;;;;748395;185;817921;-61
2022/10/09 02:42:29;;;;;;;12.17;7.03;;;;;;;;;;744039;187;918873;-58
2022/10/09 02:44:55;;;;;;;12.32;6.55;;;;;;;;;;742081;185;918739;-58
2022/10/09 02:47:21;;;;;;;11.13;5.30;;;;;;;;;;748174;187;919955;-58
2022/10/09 02:49:47;;;;;;;10.37;6.07;;;;;;;;;;743927;186;918814;-58
2022/10/09 02:52:13;;;;;;;12.43;7.47;;;;;;;;;;745661;187;816570;-58
2022/10/09 02:54:39;;;;;;;9.00;6.80;;;;;;;;;;749708;187;881481;-58
2022/10/09 02:57:04;;;;;;;13.97;5.53;;;;;;;;;;743366;187;918630;-58
2022/10/09 02:59:31;;;;;;;11.67;5.77;;;;;;;;;;742427;187;916115;-61
2022/10/09 03:01:56;;;;;;;11.77;6.07;;;;;;;;;;742342;187;919287;-61
2022/10/09 03:04:22;;;;;;;14.53;5.40;;;;;;;;;;747033;187;916738;-58
2022/10/09 03:06:48;;;;;;;9.10;6.37;;;;;;;;;;740140;187;919280;-61
2022/10/09 03:09:14;;;;;;;12.30;5.90;;;;;;;;;;741759;187;919132;-58
2022/10/09 03:11:39;;;;;;;10.40;5.00;;;;;;;;;;748842;186;918296;-62
2022/10/09 03:14:05;;;;;;;13.73;6.30;;;;;;;;;;742758;186;918752;-58
2022/10/09 03:16:31;;;;;;;12.80;6.50;;;;;;;;;;743827;187;917756;-61
2022/10/09 03:18:57;;;;;;;11.97;5.77;;;;;;;;;;748249;187;840853;-62
2022/10/09 03:21:23;;;;;;;20.40;7.30;;;;;;;;;;743688;187;920050;-58
2022/10/09 03:23:49;;;;;;;8.77;6.13;;;;;;;;;;744210;187;919148;-58
2022/10/09 03:26:14;;;;;;;7.90;4.50;;;;;;;;;;743493;187;816478;-61
2022/10/09 03:28:40;;;;;;;11.93;4.67;;;;;;;;;;747325;187;919159;-57
2022/10/09 03:31:06;;;;;;;12.13;5.37;;;;;;;;;;741419;186;919434;-61
2022/10/09 03:33:32;;;;;;;14.63;5.80;;;;;;;;;;743898;185;916022;-61
2022/10/09 03:35:58;;;;;;;11.60;4.97;;;;;;;;;;747778;187;938906;-57
2022/10/09 03:38:24;;;;;;;10.43;5.50;;;;;;;;;;743981;187;918700;-62
2022/10/09 03:40:49;;;;;;;11.87;4.80;;;;;;;;;;743450;185;919111;-62
2022/10/09 03:43:15;;;;;;;8.40;5.00;;;;;;;;;;747207;187;919057;-56
2022/10/09 03:45:41;;;;;;;8.50;5.27;;;;;;;;;;742907;186;918031;-62
2022/10/09 03:48:07;;;;;;;16.77;6.10;;;;;;;;;;745877;184;915812;-58
2022/10/09 03:50:33;;;;;;;10.63;5.37;;;;;;;;;;746247;187;921958;-57
2022/10/09 03:52:59;;;;;;;9.40;5.27;;;;;;;;;;742098;185;916122;-58
2022/10/09 03:55:24;;;;;;;10.53;5.10;;;;;;;;;;745060;186;917537;-58
2022/10/09 03:57:50;;;;;;;11.10;6.00;;;;;;;;;;742289;187;919539;-61
2022/10/09 04:00:16;;;;;;;9.60;4.67;;;;;;;;;;751506;186;915532;-61
2022/10/09 04:02:42;;;;;;;7.67;4.50;;;;;;;;;;747088;187;923334;-57
2022/10/09 04:05:08;;;;;;;7.73;5.23;;;;;;;;;;742959;187;914102;-57
2022/10/09 04:07:34;;;;;;;10.87;6.50;;;;;;;;;;746715;185;915051;-61
2022/10/09 04:10:00;;;;;;;11.80;8.40;;;;;;;;;;749086;184;916599;-62
2022/10/09 04:12:25;;;;;;;8.60;5.53;;;;;;;;;;746841;186;916144;-61
2022/10/09 04:14:51;;;;;;;7.77;5.70;;;;;;;;;;739883;185;915432;-56
2022/10/09 04:17:17;;;;;;;8.70;5.90;;;;;;;;;;740806;186;933181;-62
2022/10/09 04:19:43;;;;;;;8.43;5.33;;;;;;;;;;742604;187;918654;-59
2022/10/09 04:22:09;;;;;;;8.55;4.65;;;;;;;;;;738553;187;924631;-61
2022/10/09 04:24:35;;;;;;;7.10;5.00;;;;;;;;;;742120;186;918163;-57
2022/10/09 04:27:00;;;;;;;15.93;5.23;;;;;;;;;;740358;187;919394;-56
2022/10/09 04:29:26;;;;;;;13.87;6.97;;;;;;;;;;746430;187;921923;-61
2022/10/09 04:31:52;;;;;;;10.15;4.75;;;;;;;;;;753619;186;818953;-57
2022/10/09 04:34:18;;;;;;;21.67;5.87;;;;;;;;;;738912;186;1737591;-57
2022/10/09 04:36:44;;;;;;;9.37;4.87;;;;;;;;;;744488;187;918873;-57
2022/10/09 04:39:10;;;;;;;7.37;4.47;;;;;;;;;;749984;186;881098;-61
2022/10/09 04:41:36;;;;;;;9.03;3.93;;;;;;;;;;739386;186;815318;-61
2022/10/09 04:44:01;;;;;;;7.53;4.70;;;;;;;;;;741838;186;919209;-57
2022/10/09 04:46:28;;;;;;;11.65;6.20;;;;;;;;;;745530;187;918114;-57
2022/10/09 04:48:54;;;;;;;7.57;4.73;;;;;;;;;;749957;186;919596;-57
2022/10/09 04:51:19;;;;;;;13.10;6.00;;;;;;;;;;743489;185;904555;-61
2022/10/09 04:53:45;;;;;;;7.97;5.00;;;;;;;;;;744527;187;816574;-60
2022/10/09 04:56:11;;;;;;;9.80;5.40;;;;;;;;;;751536;187;819752;-61
2022/10/09 04:58:39;;;;;;;6.10;4.97;;;;;;;;;;745323;184;915630;-57
2022/10/09 05:01:06;;;;;;;11.30;4.50;;;;;;;;;;744712;186;902589;-57
2022/10/09 05:03:31;;;;;;;11.10;4.53;;;;;;;;;;750822;186;873118;-60
2022/10/09 05:05:59;;;;;;;10.73;4.27;;;;;;;;;;743544;185;919545;-61
2022/10/09 05:08:25;;;;;;;8.37;4.70;;;;;;;;;;744746;184;845675;-56
2022/10/09 05:10:51;;;;;;;5.63;3.90;;;;;;;;;;742958;186;917611;-57
2022/10/09 05:13:17;;;;;;;7.37;4.07;;;;;;;;;;747637;186;919172;-61
2022/10/09 05:15:43;;;;;;;10.50;4.57;;;;;;;;;;741526;187;917873;-60
2022/10/09 05:18:08;;;;;;;6.33;4.43;;;;;;;;;;742590;187;919244;-59
2022/10/09 05:20:34;;;;;;;4.67;3.80;;;;;;;;;;747639;184;918684;-60
2022/10/09 05:23:00;;;;;;;10.60;5.37;;;;;;;;;;742041;187;918593;-56
2022/10/09 05:25:26;;;;;;;6.97;4.83;;;;;;;;;;743757;187;925640;-60
2022/10/09 05:27:52;;;;;;;10.73;4.90;;;;;;;;;;749303;185;817980;-56
2022/10/09 05:30:18;;;;;;;7.07;4.90;;;;;;;;;;745844;187;923230;-56
2022/10/09 05:32:44;;;;;;;7.87;5.47;;;;;;;;;;742539;187;922596;-56
2022/10/09 05:35:09;;;;;;;12.43;7.50;;;;;;;;;;743536;187;903531;-61
2022/10/09 05:37:35;;;;;;;18.67;9.97;;;;;;;;;;747458;184;816828;-57
2022/10/09 05:40:01;;;;;;;18.43;7.47;;;;;;;;;;741698;187;816200;-57
2022/10/09 05:42:27;;;;;;;14.05;9.77;;;;;;;;;;742583;186;817035;-56
2022/10/09 05:44:53;;;;;;;13.00;8.17;;;;;;;;;;747596;184;918708;-56
2022/10/09 05:47:19;;;;;;;12.98;8.20;;;;;;;;;;743999;186;918203;-56
2022/10/09 05:49:45;;;;;;;17.80;8.03;;;;;;;;;;741341;186;918589;-56
2022/10/09 05:52:10;;;;;;;15.30;8.10;;;;;;;;;;747971;186;906895;-57
2022/10/09 05:54:36;;;;;;;12.13;6.50;;;;;;;;;;742866;184;786983;-61
2022/10/09 05:57:03;;;;;;;12.90;5.80;;;;;;;;;;741403;187;918550;-60
2022/10/09 05:59:29;;;;;;;8.27;5.97;;;;;;;;;;745540;186;914547;-60
2022/10/09 06:01:54;;;;;;;11.80;6.03;;;;;;;;;;743809;185;877252;-61
2022/10/09 06:04:20;;;;;;;14.93;6.07;;;;;;;;;;744357;186;923147;-60
2022/10/09 06:06:47;;;;;;;20.03;10.13;;;;;;;;;;742776;186;908708;-60
2022/10/09 06:09:13;;;;;;;16.57;10.10;;;;;;;;;;749557;187;804187;-61
2022/10/09 06:11:39;;;;;;;53.70;34.38;;;;;;;;;;742605;184;918594;-56
2022/10/09 06:14:05;;;;;;;17.83;9.17;;;;;;;;;;743257;187;921880;-57
2022/10/09 06:16:31;;;;;;;25.40;17.50;;;;;;;;;;747913;185;920294;-57
2022/10/09 06:18:56;;;;;;;86.23;70.30;;;;;;;;;;744038;186;920328;-58
2022/10/09 06:21:22;;;;;;;10.10;5.17;;;;;;;;;;742611;187;915083;-57
2022/10/09 06:23:48;;;;;;;9.10;5.93;;;;;;;;;;749988;185;922273;-61
2022/10/09 06:26:14;;;;;;;12.70;6.30;;;;;;;;;;737543;187;918488;-56
2022/10/09 06:28:40;;;;;;;7.68;5.70;;;;;;;;;;746435;186;905856;-57
2022/10/09 06:31:06;;;;;;;9.20;6.40;;;;;;;;;;743332;185;920126;-61
2022/10/09 06:33:31;;;;;;;12.30;5.67;;;;;;;;;;747940;186;885441;-58
2022/10/09 06:35:59;;;;;;;11.57;5.57;;;;;;;;;;746806;186;623951;-61
2022/10/09 06:38:25;;;;;;;13.50;8.87;;;;;;;;;;745346;187;816394;-61
2022/10/09 06:40:51;;;;;;;8.30;4.97;;;;;;;;;;747073;186;917747;-61
2022/10/09 06:43:17;;;;;;;9.50;5.60;;;;;;;;;;742236;187;916531;-62
2022/10/09 06:45:42;;;;;;;8.50;5.30;;;;;;;;;;744028;184;817115;-63
2022/10/09 06:48:08;;;;;;;10.97;5.60;;;;;;;;;;750539;186;627433;-58
2022/10/09 06:50:34;;;;;;;10.33;4.97;;;;;;;;;;750524;186;637015;-62
2022/10/09 06:53:00;;;;;;;9.60;5.50;;;;;;;;;;749447;186;626692;-63
2022/10/09 06:55:26;;;;;;;6.07;4.30;;;;;;;;;;745974;186;677951;-61
2022/10/09 06:57:52;;;;;;;11.10;5.47;;;;;;;;;;750484;186;631828;-62
2022/10/09 07:00:17;;;;;;;13.63;8.10;;;;;;;;;;746559;186;625755;-58
2022/10/09 07:02:43;;;;;;;8.57;4.43;;;;;;;;;;745535;187;629150;-63
2022/10/09 07:05:09;;;;;;;9.93;4.03;;;;;;;;;;746827;187;816695;-62
2022/10/09 07:07:35;;;;;;;5.40;3.97;;;;;;;;;;742427;186;919317;-59
2022/10/09 07:10:01;;;;;;;6.90;3.50;;;;;;;;;;741941;185;921686;-63
2022/10/09 07:12:27;;;;;;;8.27;3.60;;;;;;;;;;747778;187;916529;-58
2022/10/09 07:14:52;;;;;;;6.67;3.30;;;;;;;;;;742758;187;918804;-63
2022/10/09 07:17:18;;;;;;;8.40;3.30;;;;;;;;;;741514;184;921107;-62
2022/10/09 07:19:44;;;;;;;3.57;2.17;;;;;;;;;;742896;185;920975;-64
2022/10/09 07:22:10;;;;;;;7.77;2.70;;;;;;;;;;746915;185;921690;-57
2022/10/09 07:24:36;;;;;;;5.23;2.60;;;;;;;;;;743708;187;893391;-58
2022/10/09 07:27:02;;;;;;;11.90;8.13;;;;;;;;;;742684;185;924746;-58
2022/10/09 07:29:28;;;;;;;15.97;7.03;;;;;;;;;;748113;185;816107;-58
2022/10/09 07:31:54;;;;;;;4.83;3.03;;;;;;;;;;744080;186;798429;-63
2022/10/09 07:34:20;;;;;;;4.67;2.00;;;;;;;;;;745959;184;918819;-59
2022/10/09 07:36:46;;;;;;;9.87;3.37;;;;;;;;;;748902;187;917152;-63
2022/10/09 07:39:12;;;;;;;7.87;4.20;;;;;;;;;;745704;187;819888;-63
2022/10/09 07:41:37;;;;;;;4.50;1.70;;;;;;;;;;744720;186;918012;-57
2022/10/09 07:44:03;;;;;;;5.73;2.97;;;;;;;;;;741581;185;928388;-63
2022/10/09 07:46:29;;;;;;;8.03;2.30;;;;;;;;;;745796;186;917471;-58
2022/10/09 07:48:55;;;;;;;12.50;3.23;;;;;;;;;;743615;184;921715;-58
2022/10/09 07:51:22;;;;;;;9.10;2.10;;;;;;;;;;742741;186;918250;-59
2022/10/09 07:53:47;;;;;;;6.10;2.40;;;;;;;;;;745751;186;919397;-64
2022/10/09 07:56:13;;;;;;;7.23;2.60;;;;;;;;;;743736;185;915084;-63
2022/10/09 07:58:39;;;;;;;4.83;2.17;;;;;;;;;;742965;186;923377;-63
2022/10/09 08:01:05;;;;;;;6.30;2.40;;;;;;;;;;748225;185;819699;-59
2022/10/09 08:03:31;;;;;;;3.97;2.20;;;;;;;;;;746151;186;818693;-58
2022/10/09 08:05:57;;;;;;;4.50;2.00;;;;;;;;;;743032;187;921792;-58
2022/10/09 08:08:24;;;;;;;10.33;2.03;;;;;;;;;;745304;187;919205;-59
2022/10/09 08:10:50;;;;;;;5.60;2.70;;;;;;;;;;743535;185;816208;-58
2022/10/09 08:13:15;;;;;;;7.47;2.40;;;;;;;;;;745091;186;889440;-59
2022/10/09 08:15:41;;;;;;;10.13;5.32;;;;;;;;;;745385;187;919235;-58
2022/10/09 08:18:08;;;;;;;19.27;7.00;;;;;;;;;;744739;187;920915;-63
2022/10/09 08:20:33;;;;;;;8.67;2.50;;;;;;;;;;740021;187;922647;-63
2022/10/09 08:22:59;;;;;;;6.85;2.40;;;;;;;;;;740978;186;921922;-58
2022/10/09 08:25:25;;;;;;;10.20;2.57;;;;;;;;;;748580;187;919269;-63
2022/10/09 08:27:51;;;;;;;5.13;2.83;;;;;;;;;;744803;187;819069;-64
2022/10/09 08:30:17;;;;;;;5.33;2.77;;;;;;;;;;743526;187;919679;-64
2022/10/09 08:32:43;;;;;;;8.30;3.17;;;;;;;;;;746778;187;915677;-62
2022/10/09 08:35:08;;;;;;;6.80;2.37;;;;;;;;;;743447;186;920598;-63
2022/10/09 08:37:34;;;;;;;8.20;3.60;;;;;;;;;;742950;186;920557;-63
2022/10/09 08:40:00;;;;;;;9.20;2.37;;;;;;;;;;742783;186;920730;-60
2022/10/09 08:42:28;;;;;;;7.27;1.90;;;;;;;;;;749088;184;922511;-59
2022/10/09 08:44:54;;;;;;;5.27;2.63;;;;;;;;;;742773;187;920166;-65
2022/10/09 08:47:19;;;;;;;8.43;2.03;;;;;;;;;;742974;186;917239;-61
2022/10/09 08:50:00;;;;;;;3.93;2.10;;;;;;;;;;749271;185;817400;-64
2022/10/09 08:52:35;;;;;;;4.83;2.20;;;;;;;;;;750780;185;917190;-65
2022/10/09 08:55:14;;;;;;;6.33;2.63;;;;;;;;;;747784;186;919607;-64
2022/10/09 08:57:40;;;;;;;6.70;2.20;;;;;;;;;;746868;186;918195;-74
2022/10/09 09:00:06;;;;;;;6.73;2.37;;;;;;;;;;744886;185;918871;-69
2022/10/09 09:02:47;;;;;;;6.27;2.73;;;;;;;;;;746246;186;819062;-67
2022/10/09 09:05:13;;;;;;;8.20;2.60;;;;;;;;;;738000;186;922675;-67
2022/10/09 09:07:40;;;;;;;4.03;2.00;;;;;;;;;;747069;187;919843;-68
2022/10/09 09:10:21;;;;;;;4.27;1.90;;;;;;;;;;742418;186;918281;-68
2022/10/09 09:12:57;;;;;;;4.50;1.77;;;;;;;;;;736830;187;919404;-68
2022/10/09 09:15:24;;;;;;;6.60;3.40;;;;;;;;;;744592;186;915137;-62
2022/10/09 09:17:53;;;;;;;4.00;1.77;;;;;;;;;;741395;187;917257;-68
2022/10/09 09:20:24;;;;;;;9.30;2.20;;;;;;;;;;746434;184;852835;-68
2022/10/09 09:22:50;;;;;;;13.80;4.50;;;;;;;;;;741212;185;918102;-61
2022/10/09 09:25:18;;;;;;;4.20;1.77;;;;;;;;;;743991;187;918461;-68
2022/10/09 09:27:43;;;;;;;7.93;4.10;;;;;;;;;;745669;186;816003;-66
2022/10/09 09:30:20;;;;;;;59.10;13.17;;;;;;;;;;749743;188;624189;-68
2022/10/09 09:32:52;;;;;;;7.53;1.73;;;;;;;;;;739558;187;814649;-62
2022/10/09 09:35:21;;;;;;;7.13;1.70;;;;;;;;;;743486;187;919080;-61
2022/10/09 09:37:47;;;;;;;6.83;2.00;;;;;;;;;;743399;187;845891;-62
2022/10/09 09:40:14;;;;;;;3.80;2.13;;;;;;;;;;747175;186;917713;-67
2022/10/09 09:42:39;;;;;;;5.37;2.10;;;;;;;;;;743242;185;814654;-68
2022/10/09 09:45:05;;;;;;;4.10;1.73;;;;;;;;;;742719;186;917267;-68
2022/10/09 09:47:35;;;;;;;9.73;1.63;;;;;;;;;;747724;186;819448;-61
2022/10/09 09:50:01;;;;;;;4.80;1.53;;;;;;;;;;746248;186;697935;-68
2022/10/09 09:52:27;;;;;;;5.40;1.97;;;;;;;;;;742689;185;913692;-66
2022/10/09 09:54:53;;;;;;;5.67;1.50;;;;;;;;;;743255;184;819369;-67
2022/10/09 09:57:19;;;;;;;4.00;1.53;;;;;;;;;;750288;186;816636;-67
2022/10/09 09:59:45;;;;;;;3.90;1.50;;;;;;;;;;744775;185;918648;-61
2022/10/09 10:02:11;;;;;;;6.70;2.08;;;;;;;;;;744147;187;919230;-61
2022/10/09 10:04:37;;;;;;;4.17;1.70;;;;;;;;;;746276;186;919880;-67
2022/10/09 10:07:04;;;;;;;3.37;1.50;;;;;;;;;;742617;186;918304;-60
2022/10/09 10:09:30;;;;;;;4.13;1.73;;;;;;;;;;742105;186;918469;-59
2022/10/09 10:11:57;;;;;;;7.47;1.87;;;;;;;;;;742535;185;918721;-61
2022/10/09 10:14:22;;;;;;;11.60;3.63;;;;;;;;;;743841;185;921214;-60
2022/10/09 10:16:48;;;;;;;7.87;2.20;;;;;;;;;;742780;184;924378;-66
2022/10/09 10:19:17;;;;;;;5.50;1.90;;;;;;;;;;741323;185;921904;-60
2022/10/09 10:21:46;;;;;;;5.50;2.30;;;;;;;;;;746249;187;943740;-67
2022/10/09 10:24:12;;;;;;;6.43;1.50;;;;;;;;;;742347;187;712098;-67
2022/10/09 10:26:39;;;;;;;5.37;1.80;;;;;;;;;;741300;186;920094;-66
2022/10/09 10:29:05;;;;;;;4.70;1.80;;;;;;;;;;743535;186;916835;-61
2022/10/09 10:31:36;;;;;;;4.63;1.83;;;;;;;;;;748066;187;916073;-66
2022/10/09 10:34:02;;;;;;;9.13;2.03;;;;;;;;;;743448;185;917304;-66
2022/10/09 10:36:28;;;;;;;12.10;1.90;;;;;;;;;;743381;187;917991;-60
2022/10/09 10:38:54;;;;;;;5.10;1.67;;;;;;;;;;746870;185;918669;-66
2022/10/09 10:41:21;;;;;;;4.77;1.90;;;;;;;;;;742864;186;816328;-66
2022/10/09 10:43:48;;;;;;;5.97;2.00;;;;;;;;;;743544;184;816718;-61
2022/10/09 10:46:16;;;;;;;6.10;1.97;;;;;;;;;;744485;187;629024;-66
2022/10/09 10:48:44;;;;;;;5.77;2.10;;;;;;;;;;751127;187;625769;-65
2022/10/09 10:51:11;;;;;;;6.60;1.40;;;;;;;;;;745546;185;782588;-65
2022/10/09 10:53:43;;;;;;;8.13;2.63;;;;;;;;;;742732;185;919059;-66
2022/10/09 10:56:08;;;;;;;8.93;1.70;;;;;;;;;;742366;186;915856;-60
2022/10/09 10:58:38;;;;;;;6.30;2.53;;;;;;;;;;749875;186;665866;-61
2022/10/09 11:01:10;;;;;;;16.60;5.63;;;;;;;;;;744485;185;895757;-59
2022/10/09 11:03:36;;;;;;;9.97;4.47;;;;;;;;;;743502;186;918685;-60
2022/10/09 11:06:12;;;;;;;20.83;8.17;;;;;;;;;;744497;185;918389;-60
2022/10/09 11:08:38;;;;;;;8.60;2.60;;;;;;;;;;749896;187;816327;-65
2022/10/09 11:11:05;;;;;;;30.83;9.10;;;;;;;;;;744593;184;922937;-60
2022/10/09 11:13:31;;;;;;;9.03;2.00;;;;;;;;;;740572;187;922089;-60
2022/10/09 11:15:57;;;;;;;12.93;2.70;;;;;;;;;;747014;187;632358;-64
2022/10/09 11:18:23;;;;;;;4.83;1.70;;;;;;;;;;748765;187;915362;-65
2022/10/09 11:21:05;;;;;;;9.63;2.23;;;;;;;;;;744332;186;921917;-60
2022/10/09 11:23:45;;;;;;;5.80;1.40;;;;;;;;;;739004;186;915815;-65
2022/10/09 11:26:11;;;;;;;6.07;1.60;;;;;;;;;;744600;187;915609;-66
2022/10/09 11:28:37;;;;;;;5.77;2.70;;;;;;;;;;743991;187;868862;-61
2022/10/09 11:31:04;;;;;;;6.03;2.30;;;;;;;;;;748002;187;815858;-60
2022/10/09 11:33:31;;;;;;;5.43;1.73;;;;;;;;;;742485;186;916136;-66
2022/10/09 11:36:01;;;;;;;5.40;1.83;;;;;;;;;;743681;186;813290;-65
2022/10/09 11:38:28;;;;;;;4.70;2.07;;;;;;;;;;742979;185;910003;-60
2022/10/09 11:40:54;;;;;;;3.50;1.57;;;;;;;;;;745749;186;914205;-65
2022/10/09 11:43:38;;;;;;;5.13;1.70;;;;;;;;;;742673;186;917187;-66
2022/10/09 11:46:06;;;;;;;3.20;1.93;;;;;;;;;;745857;185;920062;-61
2022/10/09 11:48:34;;;;;;;5.03;1.30;;;;;;;;;;747155;187;629565;-60
2022/10/09 11:51:00;;;;;;;8.70;5.43;;;;;;;;;;747498;186;919231;-66
2022/10/09 11:53:26;;;;;;;6.27;3.90;;;;;;;;;;742525;184;916889;-65
2022/10/09 11:55:57;;;;;;;4.93;4.10;;;;;;;;;;744625;184;919662;-66
2022/10/09 11:58:23;;;;;;;12.27;2.47;;;;;;;;;;741070;187;916669;-65
2022/10/09 12:00:52;;;;;;;3.60;1.80;;;;;;;;;;746772;187;919156;-66
2022/10/09 12:03:22;;;;;;;3.80;1.27;;;;;;;;;;741804;187;916009;-67
2022/10/09 12:05:48;;;;;;;6.07;2.37;;;;;;;;;;741848;186;847245;-66
2022/10/09 12:08:13;;;;;;;4.90;2.03;;;;;;;;;;742954;187;913533;-66
2022/10/09 12:10:42;;;;;;;7.03;2.30;;;;;;;;;;745412;187;913328;-59
2022/10/09 12:13:08;;;;;;;2.10;1.07;;;;;;;;;;741545;186;916634;-65
2022/10/09 12:15:35;;;;;;;6.00;1.77;;;;;;;;;;742727;186;817401;-60
2022/10/09 12:18:00;;;;;;;4.83;1.50;;;;;;;;;;750347;184;920715;-61
2022/10/09 12:20:26;;;;;;;6.67;1.73;;;;;;;;;;744507;187;918623;-60
2022/10/09 12:22:54;;;;;;;6.83;1.37;;;;;;;;;;746701;187;918937;-59
2022/10/09 12:25:19;;;;;;;4.20;1.30;;;;;;;;;;744430;187;817277;-60
2022/10/09 12:27:45;;;;;;;4.93;1.50;;;;;;;;;;744132;188;820954;-59
2022/10/09 12:30:19;;;;;;;4.40;1.30;;;;;;;;;;740951;187;811128;-66
2022/10/09 12:32:45;;;;;;;13.67;1.77;;;;;;;;;;741273;185;914149;-59
2022/10/09 12:35:23;;;;;;;7.37;1.67;;;;;;;;;;746386;187;917369;-64
2022/10/09 12:37:49;;;;;;;3.90;1.70;;;;;;;;;;750944;186;918549;-60
2022/10/09 12:40:15;;;;;;;5.20;1.77;;;;;;;;;;740729;185;918526;-66
2022/10/09 12:42:41;;;;;;;3.53;1.33;;;;;;;;;;741664;187;919173;-65
2022/10/09 12:45:15;;;;;;;2.30;1.35;;;;;;;;;;748136;186;820143;-64
2022/10/09 12:47:41;;;;;;;4.53;1.20;;;;;;;;;;745758;186;918293;-66
2022/10/09 12:50:26;;;;;;;3.10;1.40;;;;;;;;;;742868;186;914824;-59
2022/10/09 12:52:54;;;;;;;6.20;1.50;;;;;;;;;;741765;187;918187;-60
2022/10/09 12:55:29;;;;;;;4.73;1.83;;;;;;;;;;740623;187;919586;-59
2022/10/09 12:57:55;;;;;;;4.15;1.70;;;;;;;;;;742423;187;917593;-65
2022/10/09 13:00:21;;;;;;;8.50;1.27;;;;;;;;;;749404;186;918606;-59
2022/10/09 13:02:47;;;;;;;8.30;1.53;;;;;;;;;;740861;187;919162;-59
2022/10/09 13:05:13;;;;;;;5.20;2.57;;;;;;;;;;740902;187;916678;-60
2022/10/09 13:07:40;;;;;;;3.60;1.35;;;;;;;;;;744946;187;941081;-60
2022/10/09 13:10:06;;;;;;;8.80;2.27;;;;;;;;;;748719;186;919943;-59
2022/10/09 13:12:32;;;;;;;3.30;1.50;;;;;;;;;;743277;186;900422;-63
2022/10/09 13:14:58;;;;;;;7.70;1.43;;;;;;;;;;740289;186;917236;-59
2022/10/09 13:17:24;;;;;;;2.70;1.33;;;;;;;;;;747986;187;817184;-64
2022/10/09 13:19:51;;;;;;;4.70;1.47;;;;;;;;;;740685;187;921650;-59
2022/10/09 13:22:17;;;;;;;5.40;2.20;;;;;;;;;;742552;187;917971;-58
2022/10/09 13:24:43;;;;;;;4.30;1.37;;;;;;;;;;736287;189;820175;-59
2022/10/09 13:27:09;;;;;;;4.07;1.53;;;;;;;;;;746403;186;917930;-64
2022/10/09 13:29:35;;;;;;;2.40;1.50;;;;;;;;;;748221;183;888504;-59
2022/10/09 13:32:02;;;;;;;3.37;1.50;;;;;;;;;;747009;184;814756;-64
2022/10/09 13:34:27;;;;;;;4.67;1.80;;;;;;;;;;749038;186;635101;-59
2022/10/09 13:36:52;;;;;;;3.20;1.53;;;;;;;;;;744374;185;915726;-65
2022/10/09 13:39:18;;;;;;;4.80;1.33;;;;;;;;;;743043;187;869595;-59
2022/10/09 13:41:44;;;;;;;4.00;1.63;;;;;;;;;;750849;185;889079;-60
2022/10/09 13:44:10;;;;;;;4.57;1.70;;;;;;;;;;744396;186;920178;-64
2022/10/09 13:46:36;;;;;;;5.90;1.50;;;;;;;;;;742197;185;918925;-58
2022/10/09 13:49:02;;;;;;;4.77;1.90;;;;;;;;;;748669;186;875600;-59
2022/10/09 13:51:28;;;;;;;6.43;2.80;;;;;;;;;;745935;184;820668;-59
2022/10/09 13:53:53;;;;;;;4.63;3.07;;;;;;;;;;742138;187;919997;-64
2022/10/09 13:56:20;;;;;;;4.17;2.03;;;;;;;;;;747445;187;922082;-59
2022/10/09 13:58:46;;;;;;;4.07;2.50;;;;;;;;;;747762;186;820647;-58
2022/10/09 14:01:12;;;;;;;4.50;1.70;;;;;;;;;;738773;186;817069;-65
2022/10/09 14:03:37;;;;;;;4.63;2.20;;;;;;;;;;745567;186;810310;-64
2022/10/09 14:06:03;;;;;;;6.80;2.93;;;;;;;;;;751442;187;622830;-58
2022/10/09 14:08:29;;;;;;;4.30;2.10;;;;;;;;;;748089;186;713962;-58
2022/10/09 14:10:55;;;;;;;6.07;1.80;;;;;;;;;;741931;187;919553;-63
2022/10/09 14:13:21;;;;;;;4.97;2.27;;;;;;;;;;746176;185;915461;-58
2022/10/09 14:15:47;;;;;;;3.50;1.30;;;;;;;;;;740424;187;912315;-63
2022/10/09 14:18:12;;;;;;;5.07;2.20;;;;;;;;;;742580;185;855206;-65
2022/10/09 14:20:38;;;;;;;5.33;1.97;;;;;;;;;;748194;187;918652;-63